sensor_id;sensor_type;location;lat;lon;timestamp;P1;durP1;ratioP1;P2;durP2;ratioP2
13163;SDS011;6647;53.688;10.746;2022-08-19T00:00:40;24.80;;;16.30;;
13163;SDS011;6647;53.688;10.746;2022-08-19T00:02:01;21.40;;;15.17;;
13163;SDS011;6647;53.688;10.746;2022-08-19T00:03:22;29.87;;;15.20;;
13163;SDS011;6647;53.688;10.746;2022-08-19T00:04:43;26.77;;;17.07;;
13163;SDS011;6647;53.688;10.746;2022-08-19T00:06:06;27.03;;;16.13;;
13163;SDS011;6647;53.688;10.746;2022-08-19T00:07:27;24.03;;;17.43;;
13163;SDS011;6647;53.688;10.746;2022-08-19T00:08:48;22.97;;;18.00;;
13163;SDS011;6647;53.688;10.746;2022-08-19T00:10:12;23.93;;;16.93;;
13163;SDS011;6647;53.688;10.746;2022-08-19T00:11:34;31.20;;;19.10;;
13163;SDS011;6647;53.688;10.746;2022-08-19T00:12:56;31.07;;;20.63;;
13163;SDS011;6647;53.688;10.746;2022-08-19T00:14:17;31.27;;;19.60;;
13163;SDS011;6647;53.688;10.746;2022-08-19T00:15:39;27.83;;;19.80;;
13163;SDS011;6647;53.688;10.746;2022-08-19T00:17:00;28.63;;;21.30;;
13163;SDS011;6647;53.688;10.746;2022-08-19T00:18:22;27.33;;;21.43;;
13163;SDS011;6647;53.688;10.746;2022-08-19T00:19:43;29.50;;;22.17;;
13163;SDS011;6647;53.688;10.746;2022-08-19T00:21:04;28.77;;;22.30;;
13163;SDS011;6647;53.688;10.746;2022-08-19T00:22:27;33.93;;;21.93;;
13163;SDS011;6647;53.688;10.746;2022-08-19T00:23:48;35.20;;;22.93;;
13163;SDS011;6647;53.688;10.746;2022-08-19T00:25:10;28.57;;;21.53;;
13163;SDS011;6647;53.688;10.746;2022-08-19T00:26:31;30.93;;;22.93;;
13163;SDS011;6647;53.688;10.746;2022-08-19T00:27:51;30.83;;;23.90;;
13163;SDS011;6647;53.688;10.746;2022-08-19T00:29:13;33.15;;;22.13;;
13163;SDS011;6647;53.688;10.746;2022-08-19T00:30:36;30.25;;;22.77;;
13163;SDS011;6647;53.688;10.746;2022-08-19T00:31:57;33.65;;;24.13;;
13163;SDS011;6647;53.688;10.746;2022-08-19T00:33:20;38.50;;;25.10;;
13163;SDS011;6647;53.688;10.746;2022-08-19T00:34:41;35.83;;;25.48;;
13163;SDS011;6647;53.688;10.746;2022-08-19T00:36:03;42.58;;;26.10;;
13163;SDS011;6647;53.688;10.746;2022-08-19T00:37:26;35.90;;;25.30;;
13163;SDS011;6647;53.688;10.746;2022-08-19T00:38:47;35.10;;;24.30;;
13163;SDS011;6647;53.688;10.746;2022-08-19T00:40:11;33.10;;;25.43;;
13163;SDS011;6647;53.688;10.746;2022-08-19T00:41:32;46.78;;;26.05;;
13163;SDS011;6647;53.688;10.746;2022-08-19T00:42:54;38.03;;;26.02;;
13163;SDS011;6647;53.688;10.746;2022-08-19T00:44:19;39.30;;;28.27;;
13163;SDS011;6647;53.688;10.746;2022-08-19T00:45:43;38.83;;;25.50;;
13163;SDS011;6647;53.688;10.746;2022-08-19T00:47:04;45.17;;;28.52;;
13163;SDS011;6647;53.688;10.746;2022-08-19T00:48:25;43.45;;;29.13;;
13163;SDS011;6647;53.688;10.746;2022-08-19T00:51:11;45.20;;;31.23;;
13163;SDS011;6647;53.688;10.746;2022-08-19T00:52:33;55.53;;;30.20;;
13163;SDS011;6647;53.688;10.746;2022-08-19T00:53:59;38.70;;;26.50;;
13163;SDS011;6647;53.688;10.746;2022-08-19T00:55:24;46.80;;;29.90;;
13163;SDS011;6647;53.688;10.746;2022-08-19T00:56:48;44.47;;;30.40;;
13163;SDS011;6647;53.688;10.746;2022-08-19T00:58:12;49.83;;;29.25;;
13163;SDS011;6647;53.688;10.746;2022-08-19T00:59:36;44.10;;;29.73;;
13163;SDS011;6647;53.688;10.746;2022-08-19T01:00:59;57.30;;;28.30;;
13163;SDS011;6647;53.688;10.746;2022-08-19T01:02:21;45.90;;;30.40;;
13163;SDS011;6647;53.688;10.746;2022-08-19T01:03:42;40.47;;;26.80;;
13163;SDS011;6647;53.688;10.746;2022-08-19T01:05:04;46.23;;;28.63;;
13163;SDS011;6647;53.688;10.746;2022-08-19T01:06:28;36.45;;;26.38;;
13163;SDS011;6647;53.688;10.746;2022-08-19T01:07:51;44.10;;;28.17;;
13163;SDS011;6647;53.688;10.746;2022-08-19T01:09:14;47.78;;;27.33;;
13163;SDS011;6647;53.688;10.746;2022-08-19T01:10:47;40.37;;;28.77;;
13163;SDS011;6647;53.688;10.746;2022-08-19T01:12:14;40.57;;;25.90;;
13163;SDS011;6647;53.688;10.746;2022-08-19T01:13:36;42.43;;;28.00;;
13163;SDS011;6647;53.688;10.746;2022-08-19T01:14:57;44.20;;;27.13;;
13163;SDS011;6647;53.688;10.746;2022-08-19T01:16:20;36.40;;;25.98;;
13163;SDS011;6647;53.688;10.746;2022-08-19T01:17:44;52.13;;;28.83;;
13163;SDS011;6647;53.688;10.746;2022-08-19T01:19:17;45.10;;;28.90;;
13163;SDS011;6647;53.688;10.746;2022-08-19T01:20:45;40.27;;;27.70;;
13163;SDS011;6647;53.688;10.746;2022-08-19T01:23:59;48.58;;;30.08;;
13163;SDS011;6647;53.688;10.746;2022-08-19T01:25:22;38.30;;;27.33;;
13163;SDS011;6647;53.688;10.746;2022-08-19T01:27:03;47.10;;;28.23;;
13163;SDS011;6647;53.688;10.746;2022-08-19T01:28:26;47.40;;;29.00;;
13163;SDS011;6647;53.688;10.746;2022-08-19T01:29:48;53.10;;;30.70;;
13163;SDS011;6647;53.688;10.746;2022-08-19T01:31:22;41.90;;;30.20;;
13163;SDS011;6647;53.688;10.746;2022-08-19T01:32:46;50.90;;;29.87;;
13163;SDS011;6647;53.688;10.746;2022-08-19T01:34:07;50.58;;;28.13;;
13163;SDS011;6647;53.688;10.746;2022-08-19T01:35:29;41.30;;;26.23;;
13163;SDS011;6647;53.688;10.746;2022-08-19T01:36:51;42.93;;;28.17;;
13163;SDS011;6647;53.688;10.746;2022-08-19T01:38:23;45.38;;;26.95;;
13163;SDS011;6647;53.688;10.746;2022-08-19T01:39:45;47.17;;;30.38;;
13163;SDS011;6647;53.688;10.746;2022-08-19T01:41:06;43.17;;;28.03;;
13163;SDS011;6647;53.688;10.746;2022-08-19T01:42:27;42.97;;;29.33;;
13163;SDS011;6647;53.688;10.746;2022-08-19T01:43:48;44.77;;;29.20;;
13163;SDS011;6647;53.688;10.746;2022-08-19T01:45:09;42.53;;;29.30;;
13163;SDS011;6647;53.688;10.746;2022-08-19T01:46:31;52.45;;;28.25;;
13163;SDS011;6647;53.688;10.746;2022-08-19T01:47:52;40.40;;;28.27;;
13163;SDS011;6647;53.688;10.746;2022-08-19T01:49:13;43.07;;;29.73;;
13163;SDS011;6647;53.688;10.746;2022-08-19T01:50:34;47.03;;;30.30;;
13163;SDS011;6647;53.688;10.746;2022-08-19T01:51:56;41.10;;;25.87;;
13163;SDS011;6647;53.688;10.746;2022-08-19T01:53:17;46.30;;;27.75;;
13163;SDS011;6647;53.688;10.746;2022-08-19T01:54:38;35.90;;;27.03;;
13163;SDS011;6647;53.688;10.746;2022-08-19T01:55:59;47.25;;;29.48;;
13163;SDS011;6647;53.688;10.746;2022-08-19T01:57:21;52.50;;;30.60;;
13163;SDS011;6647;53.688;10.746;2022-08-19T01:58:43;47.37;;;29.63;;
13163;SDS011;6647;53.688;10.746;2022-08-19T02:00:12;45.00;;;28.90;;
13163;SDS011;6647;53.688;10.746;2022-08-19T02:01:36;54.60;;;30.77;;
13163;SDS011;6647;53.688;10.746;2022-08-19T02:02:56;45.47;;;28.27;;
13163;SDS011;6647;53.688;10.746;2022-08-19T02:04:17;54.97;;;28.73;;
13163;SDS011;6647;53.688;10.746;2022-08-19T02:05:39;55.23;;;29.53;;
13163;SDS011;6647;53.688;10.746;2022-08-19T02:07:01;51.83;;;29.40;;
13163;SDS011;6647;53.688;10.746;2022-08-19T02:08:22;43.03;;;29.17;;
13163;SDS011;6647;53.688;10.746;2022-08-19T02:09:43;48.20;;;29.70;;
13163;SDS011;6647;53.688;10.746;2022-08-19T02:11:04;49.37;;;32.27;;
13163;SDS011;6647;53.688;10.746;2022-08-19T02:12:26;48.73;;;31.17;;
13163;SDS011;6647;53.688;10.746;2022-08-19T02:13:48;47.73;;;29.40;;
13163;SDS011;6647;53.688;10.746;2022-08-19T02:15:09;52.63;;;29.50;;
13163;SDS011;6647;53.688;10.746;2022-08-19T02:16:31;57.43;;;29.50;;
13163;SDS011;6647;53.688;10.746;2022-08-19T02:17:52;53.22;;;30.50;;
13163;SDS011;6647;53.688;10.746;2022-08-19T02:19:13;42.67;;;28.70;;
13163;SDS011;6647;53.688;10.746;2022-08-19T02:20:34;46.70;;;27.70;;
13163;SDS011;6647;53.688;10.746;2022-08-19T02:21:56;50.20;;;28.45;;
13163;SDS011;6647;53.688;10.746;2022-08-19T02:23:16;48.05;;;27.30;;
13163;SDS011;6647;53.688;10.746;2022-08-19T02:24:37;47.22;;;28.85;;
13163;SDS011;6647;53.688;10.746;2022-08-19T02:25:59;38.40;;;27.73;;
13163;SDS011;6647;53.688;10.746;2022-08-19T02:27:20;52.08;;;30.10;;
13163;SDS011;6647;53.688;10.746;2022-08-19T02:28:42;47.80;;;30.77;;
13163;SDS011;6647;53.688;10.746;2022-08-19T02:30:04;44.77;;;31.97;;
13163;SDS011;6647;53.688;10.746;2022-08-19T02:31:27;45.88;;;30.92;;
13163;SDS011;6647;53.688;10.746;2022-08-19T02:32:51;47.33;;;29.35;;
13163;SDS011;6647;53.688;10.746;2022-08-19T02:34:12;47.97;;;30.95;;
13163;SDS011;6647;53.688;10.746;2022-08-19T02:35:33;50.57;;;30.27;;
13163;SDS011;6647;53.688;10.746;2022-08-19T02:36:54;53.63;;;30.83;;
13163;SDS011;6647;53.688;10.746;2022-08-19T02:38:15;46.43;;;29.53;;
13163;SDS011;6647;53.688;10.746;2022-08-19T02:39:48;60.47;;;29.80;;
13163;SDS011;6647;53.688;10.746;2022-08-19T02:41:28;50.17;;;30.60;;
13163;SDS011;6647;53.688;10.746;2022-08-19T02:42:51;49.47;;;28.93;;
13163;SDS011;6647;53.688;10.746;2022-08-19T02:44:12;46.50;;;27.87;;
13163;SDS011;6647;53.688;10.746;2022-08-19T02:45:34;40.70;;;28.17;;
13163;SDS011;6647;53.688;10.746;2022-08-19T02:46:55;53.30;;;29.80;;
13163;SDS011;6647;53.688;10.746;2022-08-19T02:48:17;45.07;;;29.60;;
13163;SDS011;6647;53.688;10.746;2022-08-19T02:49:39;59.00;;;30.57;;
13163;SDS011;6647;53.688;10.746;2022-08-19T02:51:00;47.53;;;29.53;;
13163;SDS011;6647;53.688;10.746;2022-08-19T02:52:21;59.33;;;29.67;;
13163;SDS011;6647;53.688;10.746;2022-08-19T02:53:43;53.60;;;29.00;;
13163;SDS011;6647;53.688;10.746;2022-08-19T02:55:05;56.60;;;30.10;;
13163;SDS011;6647;53.688;10.746;2022-08-19T02:56:26;52.70;;;31.67;;
13163;SDS011;6647;53.688;10.746;2022-08-19T02:57:47;43.80;;;30.60;;
13163;SDS011;6647;53.688;10.746;2022-08-19T02:59:08;43.47;;;29.63;;
13163;SDS011;6647;53.688;10.746;2022-08-19T03:00:30;41.67;;;27.90;;
13163;SDS011;6647;53.688;10.746;2022-08-19T03:01:51;47.97;;;30.00;;
13163;SDS011;6647;53.688;10.746;2022-08-19T03:03:12;39.87;;;28.00;;
13163;SDS011;6647;53.688;10.746;2022-08-19T03:04:33;38.80;;;27.10;;
13163;SDS011;6647;53.688;10.746;2022-08-19T03:06:08;43.93;;;29.00;;
13163;SDS011;6647;53.688;10.746;2022-08-19T03:07:33;42.60;;;27.23;;
13163;SDS011;6647;53.688;10.746;2022-08-19T03:08:55;42.30;;;27.10;;
13163;SDS011;6647;53.688;10.746;2022-08-19T03:10:17;41.03;;;26.90;;
13163;SDS011;6647;53.688;10.746;2022-08-19T03:11:38;46.07;;;26.23;;
13163;SDS011;6647;53.688;10.746;2022-08-19T03:12:59;39.77;;;24.67;;
13163;SDS011;6647;53.688;10.746;2022-08-19T03:14:20;44.67;;;27.30;;
13163;SDS011;6647;53.688;10.746;2022-08-19T03:15:45;42.37;;;26.50;;
13163;SDS011;6647;53.688;10.746;2022-08-19T03:17:06;44.90;;;28.53;;
13163;SDS011;6647;53.688;10.746;2022-08-19T03:18:28;45.07;;;27.40;;
13163;SDS011;6647;53.688;10.746;2022-08-19T03:19:49;41.83;;;26.20;;
13163;SDS011;6647;53.688;10.746;2022-08-19T03:21:10;38.67;;;28.17;;
13163;SDS011;6647;53.688;10.746;2022-08-19T03:22:39;35.80;;;24.30;;
13163;SDS011;6647;53.688;10.746;2022-08-19T03:24:01;36.90;;;22.70;;
13163;SDS011;6647;53.688;10.746;2022-08-19T03:25:24;38.60;;;24.20;;
13163;SDS011;6647;53.688;10.746;2022-08-19T03:26:46;35.30;;;24.33;;
13163;SDS011;6647;53.688;10.746;2022-08-19T03:28:10;39.37;;;26.43;;
13163;SDS011;6647;53.688;10.746;2022-08-19T03:29:32;37.57;;;26.60;;
13163;SDS011;6647;53.688;10.746;2022-08-19T03:30:57;39.23;;;26.87;;
13163;SDS011;6647;53.688;10.746;2022-08-19T03:32:21;40.30;;;25.77;;
13163;SDS011;6647;53.688;10.746;2022-08-19T03:33:42;40.87;;;24.17;;
13163;SDS011;6647;53.688;10.746;2022-08-19T03:35:03;47.20;;;25.00;;
13163;SDS011;6647;53.688;10.746;2022-08-19T03:36:26;31.23;;;23.20;;
13163;SDS011;6647;53.688;10.746;2022-08-19T03:37:47;34.33;;;24.40;;
13163;SDS011;6647;53.688;10.746;2022-08-19T03:39:09;37.60;;;25.60;;
13163;SDS011;6647;53.688;10.746;2022-08-19T03:40:30;41.00;;;27.00;;
13163;SDS011;6647;53.688;10.746;2022-08-19T03:41:52;39.80;;;24.20;;
13163;SDS011;6647;53.688;10.746;2022-08-19T03:43:17;44.67;;;27.07;;
13163;SDS011;6647;53.688;10.746;2022-08-19T03:44:38;31.10;;;23.20;;
13163;SDS011;6647;53.688;10.746;2022-08-19T03:46:00;43.97;;;26.40;;
13163;SDS011;6647;53.688;10.746;2022-08-19T03:47:24;37.87;;;25.57;;
13163;SDS011;6647;53.688;10.746;2022-08-19T03:48:46;35.67;;;23.70;;
13163;SDS011;6647;53.688;10.746;2022-08-19T03:50:08;32.10;;;23.27;;
13163;SDS011;6647;53.688;10.746;2022-08-19T03:51:31;44.10;;;25.50;;
13163;SDS011;6647;53.688;10.746;2022-08-19T03:52:55;36.80;;;24.97;;
13163;SDS011;6647;53.688;10.746;2022-08-19T03:54:17;39.47;;;24.50;;
13163;SDS011;6647;53.688;10.746;2022-08-19T03:55:40;35.53;;;24.20;;
13163;SDS011;6647;53.688;10.746;2022-08-19T03:57:02;44.80;;;25.50;;
13163;SDS011;6647;53.688;10.746;2022-08-19T03:58:23;30.70;;;21.57;;
13163;SDS011;6647;53.688;10.746;2022-08-19T03:59:44;45.43;;;27.30;;
13163;SDS011;6647;53.688;10.746;2022-08-19T04:01:12;38.63;;;25.83;;
13163;SDS011;6647;53.688;10.746;2022-08-19T04:02:35;39.03;;;23.47;;
13163;SDS011;6647;53.688;10.746;2022-08-19T04:03:57;42.20;;;25.97;;
13163;SDS011;6647;53.688;10.746;2022-08-19T04:05:19;42.70;;;24.97;;
13163;SDS011;6647;53.688;10.746;2022-08-19T04:06:40;44.73;;;25.37;;
13163;SDS011;6647;53.688;10.746;2022-08-19T04:08:03;45.33;;;26.67;;
13163;SDS011;6647;53.688;10.746;2022-08-19T04:09:26;48.27;;;26.53;;
13163;SDS011;6647;53.688;10.746;2022-08-19T04:10:47;47.33;;;26.50;;
13163;SDS011;6647;53.688;10.746;2022-08-19T04:12:09;45.10;;;26.50;;
13163;SDS011;6647;53.688;10.746;2022-08-19T04:13:30;40.60;;;26.87;;
13163;SDS011;6647;53.688;10.746;2022-08-19T04:14:51;49.70;;;26.87;;
13163;SDS011;6647;53.688;10.746;2022-08-19T04:16:12;42.73;;;27.00;;
13163;SDS011;6647;53.688;10.746;2022-08-19T04:17:33;41.93;;;27.47;;
13163;SDS011;6647;53.688;10.746;2022-08-19T04:18:54;49.17;;;28.80;;
13163;SDS011;6647;53.688;10.746;2022-08-19T04:20:17;46.20;;;26.50;;
13163;SDS011;6647;53.688;10.746;2022-08-19T04:21:38;41.83;;;27.43;;
13163;SDS011;6647;53.688;10.746;2022-08-19T04:22:59;51.50;;;26.00;;
13163;SDS011;6647;53.688;10.746;2022-08-19T04:24:20;44.13;;;26.00;;
13163;SDS011;6647;53.688;10.746;2022-08-19T04:25:43;41.37;;;27.10;;
13163;SDS011;6647;53.688;10.746;2022-08-19T04:27:04;43.50;;;27.30;;
13163;SDS011;6647;53.688;10.746;2022-08-19T04:28:26;53.00;;;26.70;;
13163;SDS011;6647;53.688;10.746;2022-08-19T04:29:47;39.67;;;28.10;;
13163;SDS011;6647;53.688;10.746;2022-08-19T04:31:12;46.23;;;28.67;;
13163;SDS011;6647;53.688;10.746;2022-08-19T04:32:35;48.93;;;25.10;;
13163;SDS011;6647;53.688;10.746;2022-08-19T04:33:56;35.43;;;24.50;;
13163;SDS011;6647;53.688;10.746;2022-08-19T04:35:20;45.00;;;27.30;;
13163;SDS011;6647;53.688;10.746;2022-08-19T04:36:41;52.97;;;28.33;;
13163;SDS011;6647;53.688;10.746;2022-08-19T04:38:04;48.80;;;28.93;;
13163;SDS011;6647;53.688;10.746;2022-08-19T04:39:27;42.70;;;26.27;;
13163;SDS011;6647;53.688;10.746;2022-08-19T04:41:08;41.80;;;25.57;;
13163;SDS011;6647;53.688;10.746;2022-08-19T04:42:47;39.47;;;24.50;;
13163;SDS011;6647;53.688;10.746;2022-08-19T04:44:08;36.63;;;23.83;;
13163;SDS011;6647;53.688;10.746;2022-08-19T04:45:30;51.97;;;27.83;;
13163;SDS011;6647;53.688;10.746;2022-08-19T04:46:51;39.00;;;26.40;;
13163;SDS011;6647;53.688;10.746;2022-08-19T04:48:12;46.07;;;28.27;;
13163;SDS011;6647;53.688;10.746;2022-08-19T04:49:33;46.53;;;25.90;;
13163;SDS011;6647;53.688;10.746;2022-08-19T04:50:55;62.77;;;27.43;;
13163;SDS011;6647;53.688;10.746;2022-08-19T04:52:19;48.50;;;28.70;;
13163;SDS011;6647;53.688;10.746;2022-08-19T04:53:41;50.07;;;27.57;;
13163;SDS011;6647;53.688;10.746;2022-08-19T04:55:02;50.67;;;28.10;;
13163;SDS011;6647;53.688;10.746;2022-08-19T04:56:25;48.38;;;28.35;;
13163;SDS011;6647;53.688;10.746;2022-08-19T04:57:47;54.67;;;29.03;;
13163;SDS011;6647;53.688;10.746;2022-08-19T04:59:08;63.30;;;28.70;;
13163;SDS011;6647;53.688;10.746;2022-08-19T05:00:30;47.20;;;28.33;;
13163;SDS011;6647;53.688;10.746;2022-08-19T05:01:51;55.63;;;29.58;;
13163;SDS011;6647;53.688;10.746;2022-08-19T05:03:12;54.80;;;29.33;;
13163;SDS011;6647;53.688;10.746;2022-08-19T05:04:37;53.13;;;29.33;;
13163;SDS011;6647;53.688;10.746;2022-08-19T05:06:06;54.13;;;28.47;;
13163;SDS011;6647;53.688;10.746;2022-08-19T05:07:28;50.80;;;28.90;;
13163;SDS011;6647;53.688;10.746;2022-08-19T05:08:49;59.85;;;30.05;;
13163;SDS011;6647;53.688;10.746;2022-08-19T05:10:10;49.73;;;28.60;;
13163;SDS011;6647;53.688;10.746;2022-08-19T05:11:34;59.03;;;28.97;;
13163;SDS011;6647;53.688;10.746;2022-08-19T05:12:58;50.90;;;29.15;;
13163;SDS011;6647;53.688;10.746;2022-08-19T05:14:19;53.13;;;30.40;;
13163;SDS011;6647;53.688;10.746;2022-08-19T05:15:41;44.27;;;28.67;;
13163;SDS011;6647;53.688;10.746;2022-08-19T05:17:02;54.03;;;28.97;;
13163;SDS011;6647;53.688;10.746;2022-08-19T05:18:23;54.50;;;28.10;;
13163;SDS011;6647;53.688;10.746;2022-08-19T05:20:04;52.93;;;28.90;;
13163;SDS011;6647;53.688;10.746;2022-08-19T05:21:45;49.60;;;28.10;;
13163;SDS011;6647;53.688;10.746;2022-08-19T05:23:24;56.47;;;28.27;;
13163;SDS011;6647;53.688;10.746;2022-08-19T05:24:45;63.73;;;29.67;;
13163;SDS011;6647;53.688;10.746;2022-08-19T05:26:06;58.07;;;30.53;;
13163;SDS011;6647;53.688;10.746;2022-08-19T05:27:29;55.20;;;30.60;;
13163;SDS011;6647;53.688;10.746;2022-08-19T05:28:50;60.28;;;32.10;;
13163;SDS011;6647;53.688;10.746;2022-08-19T05:30:11;58.70;;;30.37;;
13163;SDS011;6647;53.688;10.746;2022-08-19T05:31:32;46.15;;;28.63;;
13163;SDS011;6647;53.688;10.746;2022-08-19T05:32:54;59.83;;;30.80;;
13163;SDS011;6647;53.688;10.746;2022-08-19T05:34:16;52.50;;;29.77;;
13163;SDS011;6647;53.688;10.746;2022-08-19T05:35:41;61.47;;;32.23;;
13163;SDS011;6647;53.688;10.746;2022-08-19T05:37:02;47.78;;;28.80;;
13163;SDS011;6647;53.688;10.746;2022-08-19T05:38:24;49.85;;;28.75;;
13163;SDS011;6647;53.688;10.746;2022-08-19T05:39:47;60.30;;;30.93;;
13163;SDS011;6647;53.688;10.746;2022-08-19T05:41:10;61.50;;;31.70;;
13163;SDS011;6647;53.688;10.746;2022-08-19T05:42:32;58.57;;;30.70;;
13163;SDS011;6647;53.688;10.746;2022-08-19T05:43:53;54.97;;;30.80;;
13163;SDS011;6647;53.688;10.746;2022-08-19T05:45:14;51.70;;;29.63;;
13163;SDS011;6647;53.688;10.746;2022-08-19T05:46:36;51.77;;;27.60;;
13163;SDS011;6647;53.688;10.746;2022-08-19T05:47:58;46.50;;;28.00;;
13163;SDS011;6647;53.688;10.746;2022-08-19T05:49:20;56.27;;;29.87;;
13163;SDS011;6647;53.688;10.746;2022-08-19T05:50:42;52.20;;;28.80;;
13163;SDS011;6647;53.688;10.746;2022-08-19T05:52:05;50.50;;;27.80;;
13163;SDS011;6647;53.688;10.746;2022-08-19T05:53:28;46.33;;;25.10;;
13163;SDS011;6647;53.688;10.746;2022-08-19T05:54:49;55.27;;;27.50;;
13163;SDS011;6647;53.688;10.746;2022-08-19T05:56:12;58.60;;;27.70;;
13163;SDS011;6647;53.688;10.746;2022-08-19T05:57:36;53.55;;;29.00;;
13163;SDS011;6647;53.688;10.746;2022-08-19T05:58:57;61.80;;;27.83;;
13163;SDS011;6647;53.688;10.746;2022-08-19T06:00:19;48.60;;;27.00;;
13163;SDS011;6647;53.688;10.746;2022-08-19T06:01:41;58.90;;;27.90;;
13163;SDS011;6647;53.688;10.746;2022-08-19T06:03:04;45.35;;;26.60;;
13163;SDS011;6647;53.688;10.746;2022-08-19T06:04:25;46.40;;;27.30;;
13163;SDS011;6647;53.688;10.746;2022-08-19T06:05:46;51.70;;;28.43;;
13163;SDS011;6647;53.688;10.746;2022-08-19T06:07:07;53.40;;;27.88;;
13163;SDS011;6647;53.688;10.746;2022-08-19T06:08:28;61.70;;;29.85;;
13163;SDS011;6647;53.688;10.746;2022-08-19T06:09:50;54.55;;;29.30;;
13163;SDS011;6647;53.688;10.746;2022-08-19T06:12:37;50.40;;;27.10;;
13163;SDS011;6647;53.688;10.746;2022-08-19T06:14:00;49.67;;;29.43;;
13163;SDS011;6647;53.688;10.746;2022-08-19T06:15:24;45.30;;;26.75;;
13163;SDS011;6647;53.688;10.746;2022-08-19T06:16:45;47.60;;;26.95;;
13163;SDS011;6647;53.688;10.746;2022-08-19T06:18:06;59.93;;;27.73;;
13163;SDS011;6647;53.688;10.746;2022-08-19T06:19:27;46.83;;;26.47;;
13163;SDS011;6647;53.688;10.746;2022-08-19T06:20:50;46.83;;;27.00;;
13163;SDS011;6647;53.688;10.746;2022-08-19T06:22:11;44.70;;;25.63;;
13163;SDS011;6647;53.688;10.746;2022-08-19T06:23:33;60.77;;;26.97;;
13163;SDS011;6647;53.688;10.746;2022-08-19T06:24:55;41.20;;;27.37;;
13163;SDS011;6647;53.688;10.746;2022-08-19T06:26:17;59.63;;;30.10;;
13163;SDS011;6647;53.688;10.746;2022-08-19T06:27:38;56.87;;;27.70;;
13163;SDS011;6647;53.688;10.746;2022-08-19T06:29:00;47.77;;;28.70;;
13163;SDS011;6647;53.688;10.746;2022-08-19T06:30:21;54.30;;;30.03;;
13163;SDS011;6647;53.688;10.746;2022-08-19T06:31:43;45.33;;;28.90;;
13163;SDS011;6647;53.688;10.746;2022-08-19T06:33:06;45.60;;;28.27;;
13163;SDS011;6647;53.688;10.746;2022-08-19T06:34:27;46.17;;;28.27;;
13163;SDS011;6647;53.688;10.746;2022-08-19T06:35:49;43.85;;;28.08;;
13163;SDS011;6647;53.688;10.746;2022-08-19T06:37:11;49.20;;;28.65;;
13163;SDS011;6647;53.688;10.746;2022-08-19T06:38:32;42.15;;;25.98;;
13163;SDS011;6647;53.688;10.746;2022-08-19T06:39:55;44.53;;;28.15;;
13163;SDS011;6647;53.688;10.746;2022-08-19T06:41:16;50.53;;;31.15;;
13163;SDS011;6647;53.688;10.746;2022-08-19T06:42:37;48.22;;;31.23;;
13163;SDS011;6647;53.688;10.746;2022-08-19T06:43:59;58.90;;;30.58;;
13163;SDS011;6647;53.688;10.746;2022-08-19T06:45:20;51.63;;;30.60;;
13163;SDS011;6647;53.688;10.746;2022-08-19T06:46:41;50.40;;;30.75;;
13163;SDS011;6647;53.688;10.746;2022-08-19T06:48:02;51.30;;;30.10;;
13163;SDS011;6647;53.688;10.746;2022-08-19T06:49:23;54.47;;;32.80;;
13163;SDS011;6647;53.688;10.746;2022-08-19T06:50:45;46.53;;;29.63;;
13163;SDS011;6647;53.688;10.746;2022-08-19T06:52:07;53.60;;;29.88;;
13163;SDS011;6647;53.688;10.746;2022-08-19T06:53:32;49.00;;;28.87;;
13163;SDS011;6647;53.688;10.746;2022-08-19T06:54:53;47.87;;;30.57;;
13163;SDS011;6647;53.688;10.746;2022-08-19T06:56:20;57.77;;;31.83;;
13163;SDS011;6647;53.688;10.746;2022-08-19T06:57:51;54.90;;;30.10;;
13163;SDS011;6647;53.688;10.746;2022-08-19T06:59:17;53.88;;;30.17;;
13163;SDS011;6647;53.688;10.746;2022-08-19T07:00:40;46.88;;;31.05;;
13163;SDS011;6647;53.688;10.746;2022-08-19T07:02:02;51.70;;;31.63;;
13163;SDS011;6647;53.688;10.746;2022-08-19T07:03:25;55.87;;;31.87;;
13163;SDS011;6647;53.688;10.746;2022-08-19T07:04:48;51.03;;;30.33;;
13163;SDS011;6647;53.688;10.746;2022-08-19T07:06:10;55.15;;;29.20;;
13163;SDS011;6647;53.688;10.746;2022-08-19T07:07:37;57.03;;;30.95;;
13163;SDS011;6647;53.688;10.746;2022-08-19T07:08:58;59.37;;;33.17;;
13163;SDS011;6647;53.688;10.746;2022-08-19T07:10:19;47.90;;;33.35;;
13163;SDS011;6647;53.688;10.746;2022-08-19T07:11:51;50.40;;;31.77;;
13163;SDS011;6647;53.688;10.746;2022-08-19T07:13:13;52.83;;;34.40;;
13163;SDS011;6647;53.688;10.746;2022-08-19T07:14:34;56.50;;;33.72;;
13163;SDS011;6647;53.688;10.746;2022-08-19T07:15:57;53.17;;;32.83;;
13163;SDS011;6647;53.688;10.746;2022-08-19T07:17:18;63.30;;;34.88;;
13163;SDS011;6647;53.688;10.746;2022-08-19T07:18:40;55.97;;;32.72;;
13163;SDS011;6647;53.688;10.746;2022-08-19T07:20:01;56.78;;;34.05;;
13163;SDS011;6647;53.688;10.746;2022-08-19T07:21:23;49.58;;;31.02;;
13163;SDS011;6647;53.688;10.746;2022-08-19T07:22:49;57.60;;;34.63;;
13163;SDS011;6647;53.688;10.746;2022-08-19T07:24:10;62.70;;;32.28;;
13163;SDS011;6647;53.688;10.746;2022-08-19T07:25:32;54.65;;;32.00;;
13163;SDS011;6647;53.688;10.746;2022-08-19T07:26:54;55.20;;;32.40;;
13163;SDS011;6647;53.688;10.746;2022-08-19T07:28:17;62.83;;;33.23;;
13163;SDS011;6647;53.688;10.746;2022-08-19T07:29:38;58.40;;;30.40;;
13163;SDS011;6647;53.688;10.746;2022-08-19T07:30:59;57.43;;;33.77;;
13163;SDS011;6647;53.688;10.746;2022-08-19T07:32:22;61.03;;;31.90;;
13163;SDS011;6647;53.688;10.746;2022-08-19T07:33:43;54.93;;;32.10;;
13163;SDS011;6647;53.688;10.746;2022-08-19T07:35:05;57.53;;;33.30;;
13163;SDS011;6647;53.688;10.746;2022-08-19T07:36:27;56.43;;;31.50;;
13163;SDS011;6647;53.688;10.746;2022-08-19T07:37:52;52.47;;;30.43;;
13163;SDS011;6647;53.688;10.746;2022-08-19T07:39:14;56.07;;;31.23;;
13163;SDS011;6647;53.688;10.746;2022-08-19T07:40:46;57.10;;;30.73;;
13163;SDS011;6647;53.688;10.746;2022-08-19T07:42:08;51.67;;;29.87;;
13163;SDS011;6647;53.688;10.746;2022-08-19T07:43:30;49.87;;;28.83;;
13163;SDS011;6647;53.688;10.746;2022-08-19T07:44:51;51.00;;;30.92;;
13163;SDS011;6647;53.688;10.746;2022-08-19T07:46:13;49.57;;;28.77;;
13163;SDS011;6647;53.688;10.746;2022-08-19T07:47:34;54.17;;;29.67;;
13163;SDS011;6647;53.688;10.746;2022-08-19T07:48:55;51.30;;;29.00;;
13163;SDS011;6647;53.688;10.746;2022-08-19T07:50:16;49.43;;;28.57;;
13163;SDS011;6647;53.688;10.746;2022-08-19T07:51:38;51.23;;;28.80;;
13163;SDS011;6647;53.688;10.746;2022-08-19T07:52:59;52.13;;;28.73;;
13163;SDS011;6647;53.688;10.746;2022-08-19T07:54:20;54.77;;;30.03;;
13163;SDS011;6647;53.688;10.746;2022-08-19T07:55:43;50.50;;;29.40;;
13163;SDS011;6647;53.688;10.746;2022-08-19T07:57:05;45.97;;;28.02;;
13163;SDS011;6647;53.688;10.746;2022-08-19T07:58:26;50.27;;;30.20;;
13163;SDS011;6647;53.688;10.746;2022-08-19T07:59:48;44.90;;;26.57;;
13163;SDS011;6647;53.688;10.746;2022-08-19T08:01:11;48.10;;;27.60;;
13163;SDS011;6647;53.688;10.746;2022-08-19T08:02:35;41.97;;;26.90;;
13163;SDS011;6647;53.688;10.746;2022-08-19T08:03:57;43.50;;;26.23;;
13163;SDS011;6647;53.688;10.746;2022-08-19T08:05:37;47.28;;;29.60;;
13163;SDS011;6647;53.688;10.746;2022-08-19T08:07:16;45.33;;;27.52;;
13163;SDS011;6647;53.688;10.746;2022-08-19T08:08:56;43.80;;;26.93;;